Terminal Aerodrome Forecast
Issued by NWS

Home | Current Version | Previous Version | Graphics & Text | Print | Product List | Glossary On
Versions: 1 2 3 4 5 6 7 8 9 10 11 12 13
000
FTUS45 KGGW 100524
TAFSDY
TAF
KSDY 100524Z 1006/1106 29011KT P6SM FEW150 WS020/32040KT
     FM101600 26009KT P6SM SCT150
     FM110100 29015G24KT P6SM FEW150 WS020/31045KT=

USA.gov is the U.S. government's official web portal to all federal, state and local government web resources and services.